Time,TemperatureF,DewpointF,PressureIn,WindDirection,WindDirectionDegrees,WindSpeedMPH,WindSpeedGustMPH,Humidity,HourlyPrecipIn,Conditions,Clouds,dailyrainin,SoftwareType,DateUTC
2013-10-04 00:55:00,37.0,24.0,29.59,WNW,286,0.0,-999.0,58,-99.99,,,-99.99,,2013-10-04 06:55:00,
2013-10-04 01:16:00,39.0,24.0,29.58,SW,225,0.0,-999.0,55,-99.99,,,-99.99,,2013-10-04 07:16:00,
2013-10-04 01:25:00,39.0,25.0,29.58,West,281,0.0,-999.0,56,-99.99,,,-99.99,,2013-10-04 07:25:00,
2013-10-04 01:55:00,38.0,24.0,29.57,WNW,284,0.0,-999.0,57,-99.99,,,-99.99,,2013-10-04 07:55:00,
2013-10-04 02:25:00,40.0,24.0,29.58,WSW,255,2.0,-999.0,53,-99.99,,,-99.99,,2013-10-04 08:25:00,
2013-10-04 02:55:00,39.0,24.0,29.56,SSE,157,0.0,-999.0,54,-99.99,,,-99.99,,2013-10-04 08:55:00,
2013-10-04 03:15:00,38.0,24.0,29.57,South,182,0.0,-999.0,56,-99.99,,,-99.99,,2013-10-04 09:15:00,
2013-10-04 03:25:00,37.0,26.0,29.57,SW,223,1.0,-999.0,64,-99.99,,,-99.99,,2013-10-04 09:25:00,
2013-10-04 03:57:00,31.0,19.0,29.58,West,267,1.0,-999.0,60,-99.99,,,-99.99,,2013-10-04 09:57:00,
2013-10-04 04:19:00,29.0,19.0,29.61,SSW,206,2.0,-999.0,65,-99.99,,,-99.99,,2013-10-04 10:19:00,
2013-10-04 04:28:00,27.0,21.0,29.60,SW,235,1.0,-999.0,79,-99.99,,,-99.99,,2013-10-04 10:28:00,
2013-10-04 04:57:00,25.0,18.0,29.63,NNW,339,2.0,-999.0,74,-99.99,,,-99.99,,2013-10-04 10:57:00,
2013-10-04 05:28:00,25.0,16.0,29.62,East,94,1.0,-999.0,68,-99.99,,,-99.99,,2013-10-04 11:28:00,
2013-10-04 05:57:00,25.0,16.0,29.64,SSE,148,0.0,-999.0,69,-99.99,,,-99.99,,2013-10-04 11:57:00,
2013-10-04 06:18:00,26.0,14.0,29.63,SSE,148,0.0,-999.0,59,-99.99,,,-99.99,,2013-10-04 12:18:00,
2013-10-04 06:28:00,25.0,14.0,29.65,SE,142,0.0,-999.0,63,-99.99,,,-99.99,,2013-10-04 12:28:00,
2013-10-04 06:56:00,24.0,15.0,29.65,South,190,2.0,-999.0,69,-99.99,,,-99.99,,2013-10-04 12:56:00,
2013-10-04 07:18:00,23.0,13.0,29.66,WSW,241,1.0,-999.0,66,-99.99,,,-99.99,,2013-10-04 13:18:00,
2013-10-04 07:27:00,22.0,16.0,29.67,West,272,2.0,-999.0,78,-99.99,,,-99.99,,2013-10-04 13:27:00,
2013-10-04 07:47:00,21.0,15.0,29.68,SW,227,1.0,-999.0,77,-99.99,,,-99.99,,2013-10-04 13:47:00,
2013-10-04 07:56:00,22.0,12.0,29.69,SSW,213,2.0,-999.0,66,-99.99,,,-99.99,,2013-10-04 13:56:00,
2013-10-04 08:18:00,22.0,12.0,29.71,WSW,238,2.0,-999.0,64,-99.99,,,-99.99,,2013-10-04 14:18:00,
2013-10-04 08:27:00,22.0,11.0,29.71,SW,234,2.0,-999.0,61,-99.99,,,-99.99,,2013-10-04 14:27:00,
2013-10-04 08:47:00,23.0,11.0,29.73,WSW,238,3.0,-999.0,60,-99.99,,,-99.99,,2013-10-04 14:47:00,
2013-10-04 08:57:00,23.0,11.0,29.73,SSW,202,2.0,-999.0,59,-99.99,,,-99.99,,2013-10-04 14:57:00,
2013-10-04 09:18:00,24.0,11.0,29.74,South,191,3.0,-999.0,57,-99.99,,,-99.99,,2013-10-04 15:18:00,
2013-10-04 09:28:00,24.0,12.0,29.75,WSW,252,3.0,-999.0,60,-99.99,,,-99.99,,2013-10-04 15:28:00,
2013-10-04 09:48:00,24.0,13.0,29.77,NE,41,2.0,-999.0,61,-99.99,,,-99.99,,2013-10-04 15:48:00,
2013-10-04 09:57:00,25.0,13.0,29.78,WNW,290,2.0,-999.0,61,-99.99,,,-99.99,,2013-10-04 15:57:00,
2013-10-04 10:19:00,26.0,12.0,29.78,SSW,198,2.0,-999.0,54,-99.99,,,-99.99,,2013-10-04 16:19:00,
2013-10-04 10:28:00,27.0,12.0,29.79,NNW,343,2.0,-999.0,52,-99.99,,,-99.99,,2013-10-04 16:28:00,
2013-10-04 10:48:00,27.0,12.0,29.80,NW,304,2.0,-999.0,52,-99.99,,,-99.99,,2013-10-04 16:48:00,
2013-10-04 10:57:00,27.0,13.0,29.81,WNW,301,1.0,-999.0,54,-99.99,,,-99.99,,2013-10-04 16:57:00,
2013-10-04 11:28:00,26.0,9.0,29.82,NW,320,2.0,-999.0,49,-99.99,,,-99.99,,2013-10-04 17:28:00,
2013-10-04 12:19:00,27.0,10.0,29.84,SSW,203,3.0,-999.0,48,-99.99,,,-99.99,,2013-10-04 18:19:00,
2013-10-04 12:29:00,28.0,12.0,29.85,West,275,4.0,-999.0,50,-99.99,,,-99.99,,2013-10-04 18:29:00,
2013-10-04 12:49:00,28.0,10.0,29.86,SW,215,3.0,-999.0,47,-99.99,,,-99.99,,2013-10-04 18:49:00,
2013-10-04 12:55:00,27.0,10.0,29.87,WNW,300,4.0,-999.0,49,-99.99,,,-99.99,,2013-10-04 18:55:00,
2013-10-04 13:12:00,29.0,10.0,29.88,WSW,241,3.0,-999.0,44,-99.99,,,-99.99,,2013-10-04 19:12:00,
2013-10-04 13:22:00,29.0,11.0,29.88,North,11,2.0,-999.0,47,-99.99,,,-99.99,,2013-10-04 19:22:00,
2013-10-04 13:43:00,29.0,10.0,29.90,WNW,292,3.0,-999.0,44,-99.99,,,-99.99,,2013-10-04 19:43:00,
2013-10-04 13:52:00,30.0,10.0,29.91,WSW,254,2.0,-999.0,42,-99.99,,,-99.99,,2013-10-04 19:52:00,
2013-10-04 14:11:00,29.0,10.0,29.91,SSW,199,3.0,-999.0,45,-99.99,,,-99.99,,2013-10-04 20:11:00,
2013-10-04 14:22:00,30.0,11.0,29.92,SSW,198,3.0,-999.0,44,-99.99,,,-99.99,,2013-10-04 20:22:00,
2013-10-04 14:52:00,29.0,10.0,29.94,NNW,344,3.0,-999.0,44,-99.99,,,-99.99,,2013-10-04 20:52:00,
2013-10-04 15:12:00,30.0,9.0,29.94,West,279,3.0,-999.0,41,-99.99,,,-99.99,,2013-10-04 21:12:00,
2013-10-04 15:22:00,29.0,8.0,29.95,NW,323,2.0,-999.0,40,-99.99,,,-99.99,,2013-10-04 21:22:00,
2013-10-04 15:54:00,25.0,15.0,29.98,NNE,17,1.0,-999.0,64,-99.99,,,-99.99,,2013-10-04 21:54:00,
2013-10-04 16:23:00,26.0,10.0,29.97,SW,227,3.0,-999.0,51,-99.99,,,-99.99,,2013-10-04 22:23:00,
2013-10-04 16:52:00,27.0,13.0,30.01,NNW,330,2.0,-999.0,55,-99.99,,,-99.99,,2013-10-04 22:52:00,
2013-10-04 17:22:00,26.0,10.0,30.02,SW,220,2.0,-999.0,50,-99.99,,,-99.99,,2013-10-04 23:22:00,
2013-10-04 17:53:00,24.0,10.0,30.06,SSW,200,4.0,-999.0,54,-99.99,,,-99.99,,2013-10-04 23:53:00,
2013-10-04 18:12:00,23.0,11.0,30.07,West,271,2.0,-999.0,59,-99.99,,,-99.99,,2013-10-05 00:12:00,
2013-10-04 18:22:00,22.0,9.0,30.08,WSW,242,1.0,-999.0,57,-99.99,,,-99.99,,2013-10-05 00:22:00,
2013-10-04 18:42:00,21.0,8.0,30.10,WSW,244,2.0,-999.0,57,-99.99,,,-99.99,,2013-10-05 00:42:00,
2013-10-04 18:52:00,21.0,9.0,30.12,East,96,1.0,-999.0,60,-99.99,,,-99.99,,2013-10-05 00:52:00,
2013-10-04 19:21:00,20.0,8.0,30.13,West,259,1.0,-999.0,58,-99.99,,,-99.99,,2013-10-05 01:21:00,
2013-10-04 19:43:00,20.0,8.0,30.16,WSW,252,2.0,-999.0,59,-99.99,,,-99.99,,2013-10-05 01:43:00,
2013-10-04 19:52:00,20.0,9.0,30.16,NW,313,1.0,-999.0,61,-99.99,,,-99.99,,2013-10-05 01:52:00,
2013-10-04 20:11:00,20.0,10.0,30.16,West,265,1.0,-999.0,64,-99.99,,,-99.99,,2013-10-05 02:11:00,
2013-10-04 20:22:00,19.0,8.0,30.17,NW,306,2.0,-999.0,61,-99.99,,,-99.99,,2013-10-05 02:22:00,
2013-10-04 20:42:00,19.0,7.0,30.18,West,259,1.0,-999.0,60,-99.99,,,-99.99,,2013-10-05 02:42:00,
2013-10-04 20:52:00,19.0,7.0,30.20,SW,220,2.0,-999.0,60,-99.99,,,-99.99,,2013-10-05 02:52:00,
2013-10-04 21:23:00,19.0,7.0,30.22,SW,221,2.0,-999.0,60,-99.99,,,-99.99,,2013-10-05 03:23:00,
2013-10-04 21:45:00,18.0,7.0,30.22,WSW,246,1.0,-999.0,62,-99.99,,,-99.99,,2013-10-05 03:45:00,
2013-10-04 21:55:00,18.0,8.0,30.25,NW,319,2.0,-999.0,65,-99.99,,,-99.99,,2013-10-05 03:55:00,
2013-10-04 22:14:00,18.0,7.0,30.24,NNE,24,2.0,-999.0,62,-99.99,,,-99.99,,2013-10-05 04:14:00,
2013-10-04 22:24:00,18.0,7.0,30.24,East,88,2.0,-999.0,62,-99.99,,,-99.99,,2013-10-05 04:24:00,
2013-10-04 22:43:00,18.0,6.0,30.26,South,178,1.0,-999.0,60,-99.99,,,-99.99,,2013-10-05 04:43:00,
2013-10-04 22:53:00,18.0,6.0,30.26,South,182,2.0,-999.0,58,-99.99,,,-99.99,,2013-10-05 04:53:00,
2013-10-04 23:13:00,18.0,5.0,30.26,North,5,2.0,-999.0,57,-99.99,,,-99.99,,2013-10-05 05:13:00,
2013-10-04 23:22:00,18.0,6.0,30.25,NNE,31,3.0,-999.0,58,-99.99,,,-99.99,,2013-10-05 05:22:00,
2013-10-04 23:52:00,17.0,5.0,30.27,NNE,17,2.0,-999.0,58,-99.99,,,-99.99,,2013-10-05 05:52:00,